Time,TemperatureF,DewpointF,PressureIn,WindDirection,WindDirectionDegrees,WindSpeedMPH,WindSpeedGustMPH,Humidity,HourlyPrecipIn,Conditions,Clouds,dailyrainin,SoftwareType,DateUTC
2013-07-06 00:05:00,82.9,61.0,29.87,SE,138,8.0,9.0,48,0.00,,,0.00,weatherlink.com 1.10,2013-07-06 05:05:00,
2013-07-06 00:20:00,82.5,61.0,29.87,SE,135,5.0,8.0,49,0.00,,,0.00,weatherlink.com 1.10,2013-07-06 05:20:00,
2013-07-06 00:35:00,82.0,62.0,29.87,SE,131,4.0,7.0,51,0.00,,,0.00,weatherlink.com 1.10,2013-07-06 05:35:00,
2013-07-06 00:51:00,81.5,62.0,29.88,SE,133,5.0,7.0,52,0.00,,,0.00,weatherlink.com 1.10,2013-07-06 05:51:00,
2013-07-06 01:05:00,81.1,63.0,29.88,SSE,156,2.0,5.0,54,0.00,,,0.00,weatherlink.com 1.10,2013-07-06 06:05:00,
2013-07-06 01:20:00,80.3,63.0,29.88,SSE,153,2.0,5.0,56,0.00,,,0.00,weatherlink.com 1.10,2013-07-06 06:20:00,
2013-07-06 01:35:00,79.0,63.0,29.89,SSE,153,2.0,3.0,58,0.00,,,0.00,weatherlink.com 1.10,2013-07-06 06:35:00,
2013-07-06 01:50:00,78.1,63.0,29.89,SSE,153,0.0,3.0,60,0.00,,,0.00,weatherlink.com 1.10,2013-07-06 06:50:00,
2013-07-06 02:05:00,77.5,64.0,29.89,SSE,162,2.0,7.0,63,0.00,,,0.00,weatherlink.com 1.10,2013-07-06 07:05:00,
2013-07-06 02:20:00,78.3,65.0,29.89,SSE,166,0.0,4.0,64,0.00,,,0.00,weatherlink.com 1.10,2013-07-06 07:20:00,
2013-07-06 02:35:00,78.1,66.0,29.89,South,170,5.0,5.0,67,0.00,,,0.00,weatherlink.com 1.10,2013-07-06 07:35:00,
2013-07-06 02:50:00,78.5,67.0,29.89,South,174,2.0,6.0,68,0.00,,,0.00,weatherlink.com 1.10,2013-07-06 07:50:00,
2013-07-06 03:05:00,78.0,67.0,29.89,South,180,2.0,5.0,69,0.00,,,0.00,weatherlink.com 1.10,2013-07-06 08:05:00,
2013-07-06 03:20:00,78.0,67.0,29.89,South,178,2.0,4.0,70,0.00,,,0.00,weatherlink.com 1.10,2013-07-06 08:20:00,
2013-07-06 03:35:00,77.4,67.0,29.89,South,178,2.0,3.0,71,0.00,,,0.00,weatherlink.com 1.10,2013-07-06 08:35:00,
2013-07-06 03:50:00,76.8,68.0,29.88,South,178,3.0,4.0,73,0.00,,,0.00,weatherlink.com 1.10,2013-07-06 08:50:00,
2013-07-06 04:05:00,76.2,67.0,29.88,South,178,2.0,4.0,74,0.00,,,0.00,weatherlink.com 1.10,2013-07-06 09:05:00,
2013-07-06 04:20:00,75.3,67.0,29.88,South,178,0.0,2.0,75,0.00,,,0.00,weatherlink.com 1.10,2013-07-06 09:20:00,
2013-07-06 04:35:00,74.4,67.0,29.87,South,178,0.0,2.0,78,0.00,,,0.00,weatherlink.com 1.10,2013-07-06 09:35:00,
2013-07-06 04:50:00,73.7,67.0,29.87,South,178,0.0,0.0,79,0.00,,,0.00,weatherlink.com 1.10,2013-07-06 09:50:00,
2013-07-06 05:06:00,73.2,67.0,29.88,South,178,0.0,0.0,80,0.00,,,0.00,weatherlink.com 1.10,2013-07-06 10:06:00,
2013-07-06 05:20:00,72.8,66.0,29.88,South,178,0.0,0.0,80,0.00,,,0.00,weatherlink.com 1.10,2013-07-06 10:20:00,
2013-07-06 05:36:00,72.3,67.0,29.87,South,178,1.0,2.0,82,0.00,,,0.00,weatherlink.com 1.10,2013-07-06 10:36:00,
2013-07-06 05:50:00,72.2,67.0,29.88,South,178,0.0,2.0,83,0.00,,,0.00,weatherlink.com 1.10,2013-07-06 10:50:00,
2013-07-06 06:05:00,72.1,67.0,29.88,South,178,0.0,0.0,83,0.00,,,0.00,weatherlink.com 1.10,2013-07-06 11:05:00,
2013-07-06 06:20:00,71.7,67.0,29.87,South,178,0.0,0.0,84,0.00,,,0.00,weatherlink.com 1.10,2013-07-06 11:20:00,
2013-07-06 06:35:00,71.3,66.0,29.87,South,178,0.0,0.0,84,0.00,,,0.00,weatherlink.com 1.10,2013-07-06 11:35:00,
2013-07-06 06:51:00,71.1,66.0,29.88,South,178,0.0,0.0,84,0.00,,,0.00,weatherlink.com 1.10,2013-07-06 11:51:00,
2013-07-06 07:05:00,71.3,67.0,29.88,South,178,0.0,0.0,85,0.00,,,0.00,weatherlink.com 1.10,2013-07-06 12:05:00,
2013-07-06 07:21:00,72.5,67.0,29.88,South,178,0.0,0.0,83,0.00,,,0.00,weatherlink.com 1.10,2013-07-06 12:21:00,
2013-07-06 07:36:00,73.7,68.0,29.88,South,178,2.0,2.0,81,0.00,,,0.00,weatherlink.com 1.10,2013-07-06 12:36:00,
2013-07-06 07:51:00,75.1,68.0,29.88,South,178,2.0,3.0,79,0.00,,,0.00,weatherlink.com 1.10,2013-07-06 12:51:00,
2013-07-06 08:06:00,76.4,68.0,29.89,South,178,1.0,3.0,76,0.00,,,0.00,weatherlink.com 1.10,2013-07-06 13:06:00,
2013-07-06 08:21:00,77.5,68.0,29.89,South,177,3.0,3.0,73,0.00,,,0.00,weatherlink.com 1.10,2013-07-06 13:21:00,
2013-07-06 08:36:00,78.9,69.0,29.89,South,177,1.0,4.0,71,0.00,,,0.00,weatherlink.com 1.10,2013-07-06 13:36:00,
2013-07-06 08:51:00,80.2,68.0,29.89,SSE,166,0.0,5.0,67,0.00,,,0.00,weatherlink.com 1.10,2013-07-06 13:51:00,
2013-07-06 09:06:00,82.1,69.0,29.89,South,181,3.0,5.0,64,0.00,,,0.00,weatherlink.com 1.10,2013-07-06 14:06:00,
2013-07-06 09:21:00,84.1,68.0,29.88,South,191,5.0,7.0,58,0.00,,,0.00,weatherlink.com 1.10,2013-07-06 14:21:00,
2013-07-06 09:36:00,84.8,67.0,29.89,SSE,165,3.0,8.0,55,0.00,,,0.00,weatherlink.com 1.10,2013-07-06 14:36:00,
2013-07-06 09:51:00,86.3,67.0,29.89,SSE,166,2.0,11.0,53,0.00,,,0.00,weatherlink.com 1.10,2013-07-06 14:51:00,
2013-07-06 10:06:00,87.3,66.0,29.89,SSE,157,3.0,11.0,50,0.00,,,0.00,weatherlink.com 1.10,2013-07-06 15:06:00,
2013-07-06 10:21:00,88.0,66.0,29.89,SE,139,9.0,12.0,48,0.00,,,0.00,weatherlink.com 1.10,2013-07-06 15:21:00,
2013-07-06 10:36:00,88.6,66.0,29.89,ESE,118,8.0,13.0,47,0.00,,,0.00,weatherlink.com 1.10,2013-07-06 15:36:00,
2013-07-06 10:51:00,89.9,65.0,29.88,SE,129,7.0,15.0,44,0.00,,,0.00,weatherlink.com 1.10,2013-07-06 15:51:00,
2013-07-06 11:06:00,90.5,67.0,29.88,SE,137,5.0,14.0,46,0.00,,,0.00,weatherlink.com 1.10,2013-07-06 16:06:00,
2013-07-06 11:21:00,91.2,66.0,29.88,SE,144,5.0,12.0,43,0.00,,,0.00,weatherlink.com 1.10,2013-07-06 16:21:00,
2013-07-06 11:51:00,92.8,66.0,29.88,ESE,104,5.0,15.0,41,0.00,,,0.00,weatherlink.com 1.10,2013-07-06 16:51:00,
2013-07-06 12:21:00,93.3,64.0,29.87,SE,135,10.0,13.0,38,0.00,,,0.00,weatherlink.com 1.10,2013-07-06 17:21:00,
2013-07-06 13:22:00,95.4,64.0,29.85,SE,145,10.0,15.0,35,0.00,,,0.00,weatherlink.com 1.10,2013-07-06 18:22:00,
2013-07-06 13:36:00,95.5,62.0,29.85,SE,141,11.0,17.0,33,0.00,,,0.00,weatherlink.com 1.10,2013-07-06 18:36:00,
2013-07-06 13:51:00,95.2,63.0,29.85,SE,140,14.0,18.0,34,0.00,,,0.00,weatherlink.com 1.10,2013-07-06 18:51:00,
2013-07-06 15:52:00,96.4,60.0,29.81,East,79,8.0,16.0,30,0.00,,,0.00,weatherlink.com 1.10,2013-07-06 20:52:00,
2013-07-06 16:07:00,97.1,59.0,29.81,East,101,5.0,14.0,28,0.00,,,0.00,weatherlink.com 1.10,2013-07-06 21:07:00,
2013-07-06 16:22:00,97.5,59.0,29.81,SE,143,9.0,17.0,28,0.00,,,0.00,weatherlink.com 1.10,2013-07-06 21:22:00,